AirNav   Air Wisconsin Up To $57,000 Bonus
 
 1376 users online  

MO52 Missouri Baptist Hospital Heliport
Sullivan, Missouri, USA

GOING TO SULLIVAN?


FAA INFORMATION EFFECTIVE 05 DECEMBER 2019

Location

FAA Identifier: MO52
Lat/Long: 38-11-47.2500N 091-10-12.0000W
38-11.787500N 091-10.200000W
38.1964583,-91.1700000
(estimated)
Elevation: 991 ft. / 302 m (estimated)
From city: 1 mile SW of SULLIVAN, MO
Time zone: UTC -6 (UTC -5 during Daylight Saving Time)
Zip code: 63080

Heliport Operations

Heliport use: Private use. Permission required prior to landing
Activation date: 09/2015
Control tower: no
ARTCC: KANSAS CITY CENTER
FSS: SAINT LOUIS FLIGHT SERVICE STATION
Attendance: UNATTNDED
Wind indicator: lighted
Segmented circle: no

Heliport Communications

WX AWOS-3 at UUV (2.2 nm N): 119.375 (573-860-2596)

Nearby radio navigation aids

VOR radial/distance  VOR name  Freq  Var
VIHr078/25.4VICHY VOR/DME117.7006E
FTZr192/31.3FORISTELL VORTAC110.8005E

Heliport Services

Runway Information

Helipad H1

Dimensions: 40 x 40 ft. / 12 x 12 m
Surface: concrete
Latitude: 38-11.787500N
Longitude: 091-10.200000W
Traffic pattern: leftleft

Heliport Ownership and Management from official FAA records

Ownership: Privately-owned
Owner: MISSOURI BAPTIST HOSPITAL
751 SAPPINGTON BRIDGE RD.
SULLIVAN, MO 63080
Phone 573-468-1346
Manager: JERROD SCHLUETER
752 SAPPINGTON BRIDGE ROAD
SULLIVAN, MO 63080
Phone 573-468-1346

Additional Remarks

FOR CD CTC KANSAS CITY ARTCC AT 913-254-8508.

Instrument Procedures

There are no published instrument procedures at MO52.

Some nearby airports with instrument procedures:

KUUV - Sullivan Regional Airport (2 nm N)
KUBX - Cuba Municipal Airport (14 nm SW)
KFYG - Washington Regional Airport (25 nm N)
8WC - Washington County Airport (26 nm SE)
KVIH - Rolla National Airport (29 nm W)
 
Loc | Ops | Rwys | IFR | FBO | Links
Com | Nav | Svcs | Stats | Notes
Aerial photo
No photo
 
Airport distance calculator
Flying to Missouri Baptist Hospital Heliport? Find the distance to fly.

From to MO52

Sunrise and sunset
Times for 09-Dec-2019
 Local
(UTC-6)
 Zulu
(UTC)
Morning civil twilight06:4112:41
Sunrise07:1113:11
Sunset16:4422:44
Evening civil twilight17:1323:13

Current date and time
Zulu (UTC)  09-Dec-2019 17:47:08
Local (UTC-6)  09-Dec-2019 11:47:08
 
METAR
KVIH 
28nm W 
091653Z AUTO 22007KT 5SM BR OVC013 12/09 A2963 RMK AO2 SLP031 T01170094
KSUS 
37nm NE 
091654Z 22004KT 10SM OVC013 12/10 A2960 RMK AO2 SLP025 T01220100
KFAM 
44nm SE 
091656Z AUTO 21008KT 5SM BR OVC004 12/12 A2964 RMK AO2 SLP046 T01170117
TAF
KSUS 
37nm NE 
091608Z 0916/1012 21006KT P6SM OVC012 FM091700 22006KT P6SM VCSH OVC008 FM091900 26010G17KT P6SM VCSH OVC015 FM092200 29013G21KT P6SM OVC022 FM100100 30015G24KT P6SM BKN050
NOTAMs
Click for the latest NOTAMs
NOTAMs are issued by the DoD/FAA and will open in a separate window not controlled by AirNav.

 

 
 

Would you like to see your business listed on this page?

 If your business provides an interesting product or service to pilots, flight crews, aircraft, or users of the Missouri Baptist Hospital Heliport, you should consider listing it here.  To start the listing process, click on the button below
 
Add a business
 

Other Pages about Missouri Baptist Hospital Heliport

Update a link
 
Copyright © AirNav, LLC. All rights reserved. Privacy Policy  Contact